createdAt,value
2018-09-21T00:01:52.300Z,97894.61
2018-09-21T00:04:21.406Z,97892.42
2018-09-21T00:06:50.957Z,97895.16
2018-09-21T00:09:20.098Z,97899.73
2018-09-21T00:11:49.291Z,97898.71
2018-09-21T00:14:18.506Z,97890.84
2018-09-21T00:16:47.622Z,97895.24
2018-09-21T00:19:16.754Z,97890.28
2018-09-21T00:21:45.886Z,97887.96
2018-09-21T00:24:15.046Z,97890.26
2018-09-21T00:26:43.889Z,97882.01
2018-09-21T00:29:13.029Z,97878.50
2018-09-21T00:31:42.186Z,97886.10
2018-09-21T00:34:11.330Z,97878.16
2018-09-21T00:36:40.482Z,97881.29
2018-09-21T00:39:10.594Z,97879.70
2018-09-21T00:41:39.785Z,97879.91
2018-09-21T00:44:09.010Z,97879.34
2018-09-21T00:46:38.305Z,97877.44
2018-09-21T00:49:07.626Z,97876.78
2018-09-21T00:51:36.986Z,97876.75
2018-09-21T00:54:06.591Z,97873.53
2018-09-21T00:56:35.906Z,97869.38
2018-09-21T00:59:05.102Z,97866.94
2018-09-21T01:01:34.339Z,97866.55
2018-09-21T01:04:03.676Z,97865.39
2018-09-21T01:06:32.814Z,97860.13
2018-09-21T01:09:02.762Z,97863.53
2018-09-21T01:11:31.929Z,97862.64
2018-09-21T01:14:01.101Z,97857.51
2018-09-21T01:16:30.274Z,97859.98
2018-09-21T01:18:59.927Z,97853.20
2018-09-21T01:21:29.062Z,97851.59
2018-09-21T01:23:58.181Z,97845.30
2018-09-21T01:26:27.325Z,97846.53
2018-09-21T01:28:57.110Z,97838.52
2018-09-21T01:31:26.246Z,97836.87
2018-09-21T01:33:55.411Z,97833.61
2018-09-21T01:36:25.197Z,97832.31
2018-09-21T01:38:54.315Z,97828.39
2018-09-21T01:41:23.438Z,97832.73
2018-09-21T01:43:52.581Z,97831.01
2018-09-21T01:46:21.706Z,97828.45
2018-09-21T01:48:51.376Z,97828.18
2018-09-21T01:51:20.554Z,97818.92
2018-09-21T01:53:49.706Z,97822.33
2018-09-21T01:56:20.229Z,97815.59
2018-09-21T01:58:49.445Z,97820.30
2018-09-21T02:01:18.721Z,97818.69
2018-09-21T02:03:48.001Z,97818.30
2018-09-21T02:06:17.245Z,97816.19
2018-09-21T02:08:46.674Z,97812.67
2018-09-21T02:11:16.717Z,97806.91
2018-09-21T02:13:46.450Z,97807.54
2018-09-21T02:16:15.598Z,97812.09
2018-09-21T02:18:44.770Z,97808.98
2018-09-21T02:21:13.930Z,97806.98
2018-09-21T02:23:43.498Z,97807.70
2018-09-21T02:26:13.233Z,97801.92
2018-09-21T02:28:42.389Z,97800.15
2018-09-21T02:31:11.662Z,97798.98
2018-09-21T02:33:40.782Z,97797.77
2018-09-21T02:36:10.491Z,97799.11
2018-09-21T02:38:39.989Z,97791.80
2018-09-21T02:41:09.210Z,97784.98
2018-09-21T02:43:38.403Z,97788.53
2018-09-21T02:46:07.582Z,97781.47
2018-09-21T02:48:36.789Z,97790.91
2018-09-21T02:51:05.940Z,97788.82
2018-09-21T02:53:35.087Z,97781.00
2018-09-21T02:56:04.761Z,97779.72
2018-09-21T02:58:34.538Z,97783.72
2018-09-21T03:01:03.411Z,97781.80
2018-09-21T03:03:32.546Z,97776.37
2018-09-21T03:06:01.683Z,97781.51
2018-09-21T03:08:31.593Z,97772.47
2018-09-21T03:11:00.737Z,97770.96
2018-09-21T03:13:29.899Z,97770.05
2018-09-21T03:15:59.038Z,97769.84
2018-09-21T03:18:28.791Z,97760.70
2018-09-21T03:20:57.932Z,97761.61
2018-09-21T03:23:27.065Z,97762.81
2018-09-21T03:25:56.201Z,97764.41
2018-09-21T03:28:25.329Z,97762.89
2018-09-21T03:30:54.482Z,97752.16
2018-09-21T03:33:23.618Z,97756.85
2018-09-21T03:35:53.301Z,97757.45
2018-09-21T03:38:22.425Z,97751.05
2018-09-21T03:40:51.558Z,97755.21
2018-09-21T03:43:20.683Z,97759.43
2018-09-21T03:45:49.825Z,97762.98
2018-09-21T03:48:19.011Z,97757.05
2018-09-21T03:50:48.190Z,97753.13
2018-09-21T03:53:17.419Z,97759.53
2018-09-21T03:55:46.629Z,97751.89
2018-09-21T03:58:15.930Z,97749.47
2018-09-21T04:00:45.099Z,97753.59
2018-09-21T04:03:14.361Z,97751.73
2018-09-21T04:05:43.651Z,97741.78
2018-09-21T04:08:13.239Z,97748.48
2018-09-21T04:10:42.443Z,97748.03
2018-09-21T04:13:11.675Z,97748.74
2018-09-21T04:15:41.003Z,97747.75
2018-09-21T04:18:09.989Z,97738.94
2018-09-21T04:20:39.530Z,97749.30
2018-09-21T04:23:08.685Z,97745.92
2018-09-21T04:25:38.034Z,97736.03
2018-09-21T04:28:07.174Z,97731.70
2018-09-21T04:30:36.357Z,97739.07
2018-09-21T04:33:05.509Z,97736.24
2018-09-21T04:35:34.654Z,97738.22
2018-09-21T04:38:03.841Z,97729.58
2018-09-21T04:40:32.979Z,97726.66
2018-09-21T04:43:02.150Z,97731.91
2018-09-21T04:45:31.350Z,97726.72
2018-09-21T04:48:00.894Z,97727.53
2018-09-21T04:50:30.310Z,97731.32
2018-09-21T04:52:59.447Z,97722.84
2018-09-21T04:55:29.198Z,97724.70
2018-09-21T04:57:58.406Z,97720.24
2018-09-21T05:00:27.539Z,97724.36
2018-09-21T05:02:56.658Z,97722.33
2018-09-21T05:05:26.518Z,97725.71
2018-09-21T05:07:55.645Z,97723.15
2018-09-21T05:10:24.770Z,97723.03
2018-09-21T05:12:54.305Z,97719.55
2018-09-21T05:15:29.943Z,97716.22
2018-09-21T05:17:59.090Z,97721.45
2018-09-21T05:20:28.250Z,97714.13
2018-09-21T05:22:57.506Z,97712.39
2018-09-21T05:25:26.906Z,97717.39
2018-09-21T05:27:56.248Z,97714.91
2018-09-21T05:30:25.682Z,97713.84
2018-09-21T05:32:54.779Z,97709.49
2018-09-21T05:35:23.918Z,97720.20
2018-09-21T05:37:53.634Z,97718.86
2018-09-21T05:40:22.846Z,97713.10
2018-09-21T05:42:52.137Z,97711.11
2018-09-21T05:45:21.474Z,97722.50
2018-09-21T05:47:50.699Z,97718.16
2018-09-21T05:50:19.842Z,97727.25
2018-09-21T05:52:49.061Z,97723.91
2018-09-21T05:55:18.244Z,97723.74
2018-09-21T05:57:47.437Z,97727.75
2018-09-21T06:00:17.892Z,97729.11
2018-09-21T06:02:47.169Z,97728.27
2018-09-21T06:05:16.718Z,97724.67
2018-09-21T06:07:45.995Z,97724.72
2018-09-21T06:10:15.243Z,97725.59
2018-09-21T06:12:44.952Z,97722.09
2018-09-21T06:15:14.213Z,97721.16
2018-09-21T06:17:43.454Z,97717.87
2018-09-21T06:20:12.821Z,97714.60
2018-09-21T06:22:45.154Z,97719.74
2018-09-21T06:25:11.555Z,97720.35
2018-09-21T06:27:41.458Z,97720.69
2018-09-21T06:30:11.372Z,97716.84
2018-09-21T06:32:41.277Z,97721.98
2018-09-21T06:35:10.567Z,97722.77
2018-09-21T06:37:39.946Z,97724.18
2018-09-21T06:40:09.190Z,97720.14
2018-09-21T06:42:38.450Z,97709.45
2018-09-21T06:45:08.110Z,97707.98
2018-09-21T06:47:37.318Z,97714.19
2018-09-21T06:50:07.143Z,97716.70
2018-09-21T06:52:36.416Z,97706.59
2018-09-21T06:55:06.553Z,97707.71
2018-09-21T06:57:36.181Z,97705.87
2018-09-21T07:00:05.570Z,97703.80
2018-09-21T07:02:34.871Z,97701.21
2018-09-21T07:05:12.506Z,97695.55
2018-09-21T07:07:42.889Z,97696.22
2018-09-21T07:10:12.221Z,97690.25
2018-09-21T07:12:42.110Z,97685.89
2018-09-21T07:15:11.658Z,97685.22
2018-09-21T07:17:41.548Z,97680.14
2018-09-21T07:20:10.733Z,97679.58
2018-09-21T07:22:41.066Z,97669.27
2018-09-21T07:25:10.214Z,97671.76
2018-09-21T07:27:39.349Z,97663.39
2018-09-21T07:30:08.538Z,97656.80
2018-09-21T07:32:38.083Z,97653.11
2018-09-21T07:35:07.386Z,97653.25
2018-09-21T07:37:36.589Z,97654.51
2018-09-21T07:40:06.398Z,97645.89
2018-09-21T07:42:35.522Z,97643.75
2018-09-21T07:45:04.713Z,97644.77
2018-09-21T07:47:33.914Z,97650.31
2018-09-21T07:50:03.106Z,97646.19
2018-09-21T07:52:32.253Z,97644.80
2018-09-21T07:55:01.602Z,97641.77
2018-09-21T07:57:30.794Z,97644.87
2018-09-21T07:59:59.950Z,97640.09
2018-09-21T08:02:29.199Z,97639.13
2018-09-21T08:04:59.014Z,97642.09
2018-09-21T08:07:28.270Z,97637.70
2018-09-21T08:09:57.496Z,97635.66
2018-09-21T08:12:26.317Z,97632.16
2018-09-21T08:14:55.461Z,97634.45
2018-09-21T08:17:24.655Z,97630.73
2018-09-21T08:19:54.241Z,97630.88
2018-09-21T08:22:23.543Z,97627.38
2018-09-21T08:24:52.711Z,97624.13
2018-09-21T08:27:21.886Z,97627.25
2018-09-21T08:29:51.145Z,97627.45
2018-09-21T08:32:20.404Z,97636.05
2018-09-21T08:34:49.570Z,97641.00
2018-09-21T08:37:18.852Z,97642.98
2018-09-21T08:39:47.884Z,97645.49
2018-09-21T08:42:17.032Z,97637.09
2018-09-21T08:44:46.168Z,97639.27
2018-09-21T08:47:15.301Z,97644.06
2018-09-21T08:49:44.517Z,97642.99
2018-09-21T08:52:13.674Z,97644.16
2018-09-21T08:54:43.107Z,97649.47
2018-09-21T08:57:12.063Z,97639.52
2018-09-21T08:59:41.419Z,97644.23
2018-09-21T09:02:10.297Z,97643.23
2018-09-21T09:04:39.826Z,97646.28
2018-09-21T09:07:09.202Z,97634.27
2018-09-21T09:09:38.645Z,97624.35
2018-09-21T09:12:07.947Z,97633.59
2018-09-21T09:14:37.646Z,97626.15
2018-09-21T09:17:06.631Z,97625.11
2018-09-21T09:19:35.809Z,97617.97
2018-09-21T09:22:05.770Z,97607.03
2018-09-21T09:24:35.013Z,97616.61
2018-09-21T09:27:03.830Z,97609.14
2018-09-21T09:29:33.025Z,97621.65
2018-09-21T09:32:02.207Z,97613.23
2018-09-21T09:34:31.345Z,97612.49
2018-09-21T09:37:00.511Z,97602.45
2018-09-21T09:39:29.615Z,97613.38
2018-09-21T09:41:58.765Z,97606.83
2018-09-21T09:44:27.882Z,97588.96
2018-09-21T09:46:57.507Z,97591.52
2018-09-21T09:49:26.758Z,97588.81
2018-09-21T09:51:55.938Z,97583.16
2018-09-21T09:54:25.093Z,97571.92
2018-09-21T09:56:54.176Z,97565.95
2018-09-21T09:59:23.357Z,97567.91
2018-09-21T10:01:52.595Z,97561.11
2018-09-21T10:04:22.204Z,97559.53
2018-09-21T10:06:51.459Z,97546.59
2018-09-21T10:09:20.884Z,97556.09
2018-09-21T10:11:50.277Z,97553.84
2018-09-21T10:14:19.505Z,97564.05
2018-09-21T10:16:48.785Z,97562.37
2018-09-21T10:19:17.905Z,97554.70
2018-09-21T10:21:47.102Z,97554.48
2018-09-21T10:24:16.374Z,97551.12
2018-09-21T10:26:45.681Z,97554.97
2018-09-21T10:29:14.765Z,97551.95
2018-09-21T10:31:43.914Z,97545.86
2018-09-21T10:34:13.027Z,97553.86
2018-09-21T10:36:42.143Z,97554.77
2018-09-21T10:39:11.340Z,97555.63
2018-09-21T10:41:40.406Z,97553.45
2018-09-21T10:44:09.567Z,97556.30
2018-09-21T10:46:38.738Z,97549.17
2018-09-21T10:49:07.950Z,97549.67
2018-09-21T10:51:37.449Z,97553.08
2018-09-21T10:54:06.534Z,97561.59
2018-09-21T10:56:35.712Z,97563.48
2018-09-21T10:59:04.895Z,97549.99
2018-09-21T11:01:34.033Z,97548.95
2018-09-21T11:04:03.617Z,97542.84
2018-09-21T11:06:32.858Z,97552.55
2018-09-21T11:09:02.715Z,97532.74
2018-09-21T11:11:31.935Z,97520.44
2018-09-21T11:14:01.178Z,97504.52
2018-09-21T11:16:30.414Z,97509.34
2018-09-21T11:19:00.154Z,97509.19
2018-09-21T11:21:30.526Z,97512.64
2018-09-21T11:23:59.824Z,97517.08
2018-09-21T11:26:29.085Z,97507.02
2018-09-21T11:28:58.286Z,97509.48
2018-09-21T11:31:27.909Z,97516.90
2018-09-21T11:33:57.057Z,97522.47
2018-09-21T11:36:26.218Z,97527.70
2018-09-21T11:38:55.362Z,97535.70
2018-09-21T11:41:24.502Z,97535.69
2018-09-21T11:43:53.696Z,97532.19
2018-09-21T11:46:22.850Z,97517.09
2018-09-21T11:48:51.981Z,97516.03
2018-09-21T11:51:21.112Z,97517.38
2018-09-21T11:53:50.333Z,97526.70
2018-09-21T11:56:19.741Z,97521.41
2018-09-21T11:58:48.918Z,97525.02
2018-09-21T12:01:18.069Z,97519.45
2018-09-21T12:03:47.601Z,97523.54
2018-09-21T12:06:16.762Z,97524.91
2018-09-21T12:08:46.012Z,97523.81
2018-09-21T12:11:15.192Z,97535.85
2018-09-21T12:13:44.313Z,97527.56
2018-09-21T12:16:13.460Z,97523.81
2018-09-21T12:18:42.830Z,97533.22
2018-09-21T12:21:12.205Z,97536.95
2018-09-21T12:23:42.198Z,97534.98
2018-09-21T12:26:11.434Z,97530.87
2018-09-21T12:28:40.598Z,97526.98
2018-09-21T12:31:09.806Z,97521.59
2018-09-21T12:33:38.930Z,97519.38
2018-09-21T12:36:09.225Z,97531.79
2018-09-21T12:38:38.312Z,97526.92
2018-09-21T12:41:07.426Z,97530.65
2018-09-21T12:43:36.665Z,97518.42
2018-09-21T12:46:10.563Z,97510.63
2018-09-21T12:48:39.746Z,97524.52
2018-09-21T12:51:08.890Z,97529.80
2018-09-21T12:53:38.039Z,97525.66
2018-09-21T12:56:07.198Z,97524.50
2018-09-21T12:58:37.042Z,97514.89
2018-09-21T13:01:06.174Z,97509.41
2018-09-21T13:03:35.392Z,97516.42
2018-09-21T13:06:04.547Z,97505.67
2018-09-21T13:08:34.121Z,97512.56
2018-09-21T13:11:03.263Z,97505.89
2018-09-21T13:13:32.475Z,97490.47
2018-09-21T13:16:01.630Z,97508.20
2018-09-21T13:18:31.379Z,97498.38
2018-09-21T13:21:00.522Z,97493.47
2018-09-21T13:23:29.806Z,97509.85
2018-09-21T13:25:59.507Z,97513.38
2018-09-21T13:28:28.711Z,97516.13
2018-09-21T13:30:58.354Z,97513.52
2018-09-21T13:33:28.229Z,97503.78
2018-09-21T13:35:57.382Z,97504.86
2018-09-21T13:38:26.526Z,97505.73
2018-09-21T13:40:55.706Z,97500.44
2018-09-21T13:43:24.830Z,97487.78
2018-09-21T13:45:53.965Z,97497.81
2018-09-21T13:48:23.821Z,97495.38
2018-09-21T13:50:52.933Z,97498.44
2018-09-21T13:53:22.873Z,97503.47
2018-09-21T13:55:52.027Z,97493.98
2018-09-21T13:58:21.146Z,97490.14
2018-09-21T14:00:50.629Z,97487.88
2018-09-21T14:03:19.782Z,97486.26
2018-09-21T14:05:48.954Z,97479.45
2018-09-21T14:08:18.137Z,97473.40
2018-09-21T14:10:47.286Z,97479.35
2018-09-21T14:13:16.450Z,97467.55
2018-09-21T14:15:45.578Z,97461.89
2018-09-21T14:18:14.748Z,97468.15
2018-09-21T14:20:44.508Z,97467.20
2018-09-21T14:23:13.629Z,97471.98
2018-09-21T14:25:42.989Z,97471.89
2018-09-21T14:28:12.814Z,97480.98
2018-09-21T14:30:41.941Z,97486.41
2018-09-21T14:33:11.169Z,97480.98
2018-09-21T14:35:40.323Z,97482.69
2018-09-21T14:38:09.567Z,97478.40
2018-09-21T14:40:38.811Z,97485.43
2018-09-21T14:43:07.996Z,97486.06
2018-09-21T14:45:37.053Z,97488.42
2018-09-21T14:48:06.306Z,97488.67
2018-09-21T14:50:35.888Z,97489.95
2018-09-21T14:53:05.119Z,97491.19
2018-09-21T14:55:34.282Z,97496.12
2018-09-21T14:58:03.458Z,97503.56
2018-09-21T15:00:32.583Z,97505.50
2018-09-21T15:03:01.756Z,97503.83
2018-09-21T15:05:30.930Z,97507.11
2018-09-21T15:08:00.046Z,97504.50
2018-09-21T15:10:29.212Z,97508.39
2018-09-21T15:12:58.338Z,97511.48
2018-09-21T15:15:27.485Z,97512.73
2018-09-21T15:17:56.632Z,97512.36
2018-09-21T15:20:25.838Z,97512.42
2018-09-21T15:22:54.989Z,97532.62
2018-09-21T15:25:24.270Z,97555.25
2018-09-21T15:27:53.640Z,97540.03
2018-09-21T15:30:23.259Z,97558.98
2018-09-21T15:32:53.334Z,97552.09
2018-09-21T15:35:22.918Z,97547.58
2018-09-21T15:37:53.478Z,97565.69
2018-09-21T15:40:22.654Z,97573.06
2018-09-21T15:42:51.999Z,97578.66
2018-09-21T15:45:21.178Z,97590.24
2018-09-21T15:47:50.263Z,97596.12
2018-09-21T15:50:19.442Z,97637.59
2018-09-21T15:52:48.693Z,97652.70
2018-09-21T15:55:17.796Z,97683.83
2018-09-21T15:57:46.924Z,97754.89
2018-09-21T16:00:16.427Z,97773.48
2018-09-21T16:02:45.570Z,97789.50
2018-09-21T16:05:14.823Z,97815.88
2018-09-21T16:07:44.080Z,97817.31
2018-09-21T16:10:13.206Z,97823.23
2018-09-21T16:12:42.338Z,97869.54
2018-09-21T16:15:11.457Z,97857.98
2018-09-21T16:17:40.937Z,97872.14
2018-09-21T16:20:10.118Z,97876.19
2018-09-21T16:22:39.254Z,97852.64
2018-09-21T16:25:08.407Z,97868.65
2018-09-21T16:27:37.565Z,97876.87
2018-09-21T16:30:08.116Z,97891.05
2018-09-21T16:32:37.481Z,97896.70
2018-09-21T16:35:07.090Z,97905.54
2018-09-21T16:37:36.203Z,97910.06
2018-09-21T16:40:05.407Z,97933.78
2018-09-21T16:42:34.538Z,97940.89
2018-09-21T16:45:04.076Z,97948.04
2018-09-21T16:47:33.211Z,97966.20
2018-09-21T16:50:02.380Z,97964.80
2018-09-21T16:52:31.601Z,97972.52
2018-09-21T16:55:01.016Z,97972.06
2018-09-21T16:57:31.235Z,97976.80
2018-09-21T17:00:00.110Z,97979.83
2018-09-21T17:02:29.214Z,97994.34
2018-09-21T17:04:58.919Z,97981.59
2018-09-21T17:07:27.775Z,97988.85
2018-09-21T17:09:56.595Z,98007.77
2018-09-21T17:12:26.038Z,98020.48
2018-09-21T17:14:55.181Z,98022.42
2018-09-21T17:17:24.647Z,98041.58
2018-09-21T17:19:54.377Z,98049.87
2018-09-21T17:22:24.055Z,98061.09
2018-09-21T17:24:54.133Z,98076.75
2018-09-21T17:27:24.072Z,98080.05
2018-09-21T17:29:54.009Z,98079.19
2018-09-21T17:32:23.511Z,98079.62
2018-09-21T17:34:52.828Z,98090.58
2018-09-21T17:37:22.789Z,98077.20
2018-09-21T17:39:51.949Z,98077.35
2018-09-21T17:42:21.798Z,98079.06
2018-09-21T17:44:51.091Z,98099.73
2018-09-21T17:47:20.267Z,98120.59
2018-09-21T17:49:49.774Z,98137.61
2018-09-21T17:52:18.902Z,98146.23
2018-09-21T17:54:48.045Z,98148.57
2018-09-21T17:57:17.177Z,98151.21
2018-09-21T17:59:46.349Z,98161.84
2018-09-21T18:02:15.980Z,98163.52
2018-09-21T18:04:45.863Z,98172.48
2018-09-21T18:07:20.983Z,98178.31
2018-09-21T18:09:52.072Z,98185.83
2018-09-21T18:12:21.410Z,98197.67
2018-09-21T18:14:51.557Z,98195.39
2018-09-21T18:17:20.758Z,98200.72
2018-09-21T18:19:49.958Z,98193.95
2018-09-21T18:22:19.119Z,98188.89
2018-09-21T18:24:48.640Z,98197.83
2018-09-21T18:27:18.339Z,98206.36
2018-09-21T18:29:47.515Z,98212.60
2018-09-21T18:32:16.662Z,98214.87
2018-09-21T18:34:45.837Z,98229.16
2018-09-21T18:37:15.020Z,98236.90
2018-09-21T18:39:44.910Z,98241.99
2018-09-21T18:42:14.039Z,98246.77
2018-09-21T18:44:45.122Z,98247.27
2018-09-21T18:47:15.571Z,98241.41
2018-09-21T18:49:44.791Z,98239.13
2018-09-21T18:52:13.995Z,98242.42
2018-09-21T18:54:44.089Z,98251.35
2018-09-21T18:57:13.290Z,98252.00
2018-09-21T18:59:42.442Z,98262.02
2018-09-21T19:02:11.671Z,98250.63
2018-09-21T19:04:40.933Z,98269.70
2018-09-21T19:07:15.286Z,98275.12
2018-09-21T19:09:44.445Z,98274.64
2018-09-21T19:12:14.525Z,98277.32
2018-09-21T19:14:43.784Z,98277.70
2018-09-21T19:17:13.481Z,98283.31
2018-09-21T19:19:42.626Z,98279.78
2018-09-21T19:22:11.777Z,98287.75
2018-09-21T19:24:41.464Z,98291.58
2018-09-21T19:27:10.729Z,98293.36
2018-09-21T19:29:39.666Z,98303.78
2018-09-21T19:32:09.334Z,98301.63
2018-09-21T19:34:40.268Z,98303.44
2018-09-21T19:37:09.415Z,98307.95
2018-09-21T19:39:38.768Z,98306.63
2018-09-21T19:42:08.239Z,98312.38
2018-09-21T19:44:37.538Z,98323.08
2018-09-21T19:47:06.870Z,98324.45
2018-09-21T19:49:36.174Z,98319.33
2018-09-21T19:52:05.439Z,98317.08
2018-09-21T19:54:34.504Z,98326.91
2018-09-21T19:57:03.622Z,98333.53
2018-09-21T19:59:32.806Z,98335.09
2018-09-21T20:02:02.781Z,98327.70
2018-09-21T20:04:31.953Z,98335.19
2018-09-21T20:07:01.098Z,98320.21
2018-09-21T20:09:30.530Z,98323.46
2018-09-21T20:11:59.885Z,98333.20
2018-09-21T20:14:29.773Z,98344.82
2018-09-21T20:16:59.134Z,98344.54
2018-09-21T20:19:27.934Z,98356.55
2018-09-21T20:21:58.842Z,98352.41
2018-09-21T20:24:28.370Z,98361.84
2018-09-21T20:26:57.691Z,98364.19
2018-09-21T20:29:26.868Z,98363.66
2018-09-21T20:32:01.606Z,98365.08
2018-09-21T20:34:31.066Z,98372.95
2018-09-21T20:37:00.190Z,98383.05
2018-09-21T20:39:29.386Z,98378.89
2018-09-21T20:41:58.506Z,98398.20
2018-09-21T20:44:28.725Z,98396.02
2018-09-21T20:46:58.195Z,98398.20
2018-09-21T20:49:27.344Z,98396.52
2018-09-21T20:51:56.506Z,98396.02
2018-09-21T20:54:26.098Z,98397.23
2018-09-21T20:56:54.948Z,98402.27
2018-09-21T20:59:24.715Z,98407.48
2018-09-21T21:01:53.753Z,98410.92
2018-09-21T21:04:24.028Z,98420.29
2018-09-21T21:06:53.446Z,98423.01
2018-09-21T21:09:23.070Z,98424.51
2018-09-21T21:11:52.549Z,98434.38
2018-09-21T21:14:21.800Z,98434.07
2018-09-21T21:16:51.054Z,98437.10
2018-09-21T21:19:20.321Z,98430.70
2018-09-21T21:21:49.719Z,98431.29
2018-09-21T21:24:19.443Z,98429.91
2018-09-21T21:26:48.572Z,98433.22
2018-09-21T21:29:17.714Z,98432.94
2018-09-21T21:31:47.139Z,98437.20
2018-09-21T21:34:16.392Z,98438.75
2018-09-21T21:36:45.521Z,98456.09
2018-09-21T21:39:14.766Z,98465.88
2018-09-21T21:41:44.594Z,98479.88
2018-09-21T21:44:14.019Z,98463.60
2018-09-21T21:46:43.145Z,98460.44
2018-09-21T21:49:12.321Z,98472.59
2018-09-21T21:51:41.398Z,98472.09
2018-09-21T21:54:10.490Z,98474.25
2018-09-21T21:56:39.661Z,98467.38
2018-09-21T21:59:09.394Z,98473.28
2018-09-21T22:01:43.801Z,98484.42
2018-09-21T22:04:13.337Z,98490.25
2018-09-21T22:06:43.354Z,98498.22
2018-09-21T22:09:13.374Z,98486.28
2018-09-21T22:13:49.748Z,98494.19
2018-09-21T22:16:18.647Z,98486.52
2018-09-21T22:18:48.225Z,98513.91
2018-09-21T22:21:17.339Z,98516.66
2018-09-21T22:23:46.458Z,98521.49
2018-09-21T22:26:16.338Z,98518.73
2018-09-21T22:28:45.675Z,98515.97
2018-09-21T22:31:14.811Z,98512.03
2018-09-21T22:33:43.908Z,98531.25
2018-09-21T22:36:12.990Z,98530.45
2018-09-21T22:38:42.130Z,98529.45
2018-09-21T22:41:11.238Z,98536.55
2018-09-21T22:43:40.846Z,98522.28
2018-09-21T22:46:09.959Z,98532.03
2018-09-21T22:48:39.063Z,98534.59
2018-09-21T22:51:09.602Z,98534.78
2018-09-21T22:53:38.735Z,98539.61
2018-09-21T22:56:08.207Z,98538.55
2018-09-21T22:58:38.520Z,98542.27
2018-09-21T23:01:08.410Z,98552.62
2018-09-21T23:03:37.539Z,98559.61
2018-09-21T23:06:06.898Z,98560.09
2018-09-21T23:08:36.729Z,98564.74
2018-09-21T23:11:05.838Z,98573.98
2018-09-21T23:13:34.988Z,98581.78
2018-09-21T23:16:04.805Z,98576.53
2018-09-21T23:18:35.165Z,98587.95
2018-09-21T23:21:04.734Z,98590.90
2018-09-21T23:23:34.078Z,98586.60
2018-09-21T23:26:03.677Z,98585.50
2018-09-21T23:28:32.781Z,98592.60
2018-09-21T23:31:01.921Z,98593.73
2018-09-21T23:33:31.050Z,98590.06
2018-09-21T23:36:00.166Z,98587.67
2018-09-21T23:38:29.953Z,98586.66
2018-09-21T23:40:59.136Z,98586.00
2018-09-21T23:43:28.258Z,98591.51
2018-09-21T23:45:57.349Z,98592.83
2018-09-21T23:48:26.509Z,98600.39
2018-09-21T23:50:55.194Z,98599.33
2018-09-21T23:53:24.443Z,98604.80
2018-09-21T23:55:53.560Z,98598.16
2018-09-21T23:58:22.678Z,98603.03
